createdAt,value
2023-04-02T00:02:26.751Z,0.80
2023-04-02T00:05:31.069Z,0.80
2023-04-02T00:08:00.535Z,1.00
2023-04-02T00:10:30.813Z,0.80
2023-04-02T00:13:05.715Z,0.90
2023-04-02T00:15:34.316Z,0.90
2023-04-02T00:18:02.503Z,0.87
2023-04-02T00:20:31.758Z,0.93
2023-04-02T00:22:59.437Z,0.67
2023-04-02T00:25:27.921Z,0.70
2023-04-02T00:27:55.914Z,0.70
2023-04-02T00:30:24.829Z,1.10
2023-04-02T00:32:52.784Z,0.80
2023-04-02T00:35:22.319Z,1.10
2023-04-02T00:37:50.468Z,1.33
2023-04-02T00:40:21.968Z,0.77
2023-04-02T00:42:50.277Z,0.80
2023-04-02T00:45:25.456Z,0.93
2023-04-02T00:47:53.833Z,0.87
2023-04-02T00:50:28.918Z,0.90
2023-04-02T00:52:58.217Z,0.80
2023-04-02T00:55:29.099Z,0.70
2023-04-02T00:57:57.235Z,1.07
2023-04-02T01:00:30.671Z,1.10
2023-04-02T01:03:34.259Z,1.67
2023-04-02T01:06:05.006Z,1.03
2023-04-02T01:08:45.462Z,0.83
2023-04-02T01:11:23.254Z,1.13
2023-04-02T01:13:55.232Z,1.00
2023-04-02T01:16:30.399Z,1.60
2023-04-02T01:19:03.318Z,1.30
2023-04-02T01:21:37.937Z,1.13
2023-04-02T01:24:07.100Z,1.30
2023-04-02T01:26:45.658Z,1.13
2023-04-02T01:29:15.932Z,1.20
2023-04-02T01:31:45.632Z,2.70
2023-04-02T01:34:16.374Z,1.83
2023-04-02T01:36:50.233Z,1.50
2023-04-02T01:39:26.749Z,1.67
2023-04-02T01:42:00.227Z,1.80
2023-04-02T01:44:31.900Z,2.47
2023-04-02T01:47:03.750Z,2.20
2023-04-02T01:49:31.199Z,2.47
2023-04-02T01:51:58.636Z,2.20
2023-04-02T01:54:28.784Z,2.60
2023-04-02T01:56:57.283Z,2.93
2023-04-02T01:59:24.844Z,2.83
2023-04-02T02:01:58.569Z,2.77
2023-04-02T02:04:26.258Z,2.40
2023-04-02T02:06:53.845Z,2.10
2023-04-02T02:09:24.057Z,2.60
2023-04-02T02:11:51.847Z,2.80
2023-04-02T02:14:20.912Z,2.67
2023-04-02T02:16:48.790Z,2.30
2023-04-02T02:19:25.800Z,2.50
2023-04-02T02:21:54.438Z,2.50
2023-04-02T02:24:23.359Z,2.60
2023-04-02T02:27:02.313Z,3.00
2023-04-02T02:29:30.618Z,2.47
2023-04-02T02:31:58.911Z,2.80
2023-04-02T02:34:32.556Z,2.53
2023-04-02T02:37:03.705Z,2.50
2023-04-02T02:39:36.102Z,2.90
2023-04-02T02:42:06.719Z,2.80
2023-04-02T02:44:36.266Z,2.40
2023-04-02T02:47:06.369Z,2.80
2023-04-02T02:49:37.481Z,2.40
2023-04-02T02:52:14.890Z,2.20
2023-04-02T02:54:45.315Z,2.37
2023-04-02T02:57:15.507Z,2.50
2023-04-02T02:59:43.745Z,2.33
2023-04-02T03:02:11.817Z,3.10
2023-04-02T03:04:40.630Z,3.23
2023-04-02T03:07:09.199Z,2.60
2023-04-02T03:09:40.237Z,3.03
2023-04-02T03:12:22.259Z,2.47
2023-04-02T03:14:54.310Z,2.60
2023-04-02T03:17:24.969Z,2.60
2023-04-02T03:19:56.867Z,3.17
2023-04-02T03:22:29.701Z,2.20
2023-04-02T03:25:00.789Z,3.27
2023-04-02T03:27:32.326Z,2.90
2023-04-02T03:30:06.703Z,3.43
2023-04-02T03:32:36.721Z,2.53
2023-04-02T03:35:18.975Z,3.13
2023-04-02T03:37:49.293Z,2.77
2023-04-02T03:40:18.824Z,2.40
2023-04-02T03:42:50.721Z,2.80
2023-04-02T03:45:21.337Z,2.60
2023-04-02T03:47:54.238Z,2.47
2023-04-02T03:50:27.830Z,2.60
2023-04-02T03:52:55.615Z,2.10
2023-04-02T03:55:25.956Z,2.93
2023-04-02T03:57:58.616Z,3.00
2023-04-02T04:00:34.178Z,2.47
2023-04-02T04:03:08.139Z,2.30
2023-04-02T04:05:38.707Z,2.30
2023-04-02T04:08:08.541Z,2.43
2023-04-02T04:10:36.393Z,3.30
2023-04-02T04:13:06.910Z,2.50
2023-04-02T04:15:36.615Z,2.23
2023-04-02T04:18:11.473Z,3.30
2023-04-02T04:20:45.905Z,2.27
2023-04-02T04:23:19.907Z,2.70
2023-04-02T04:25:49.350Z,3.13
2023-04-02T04:28:24.071Z,3.20
2023-04-02T04:30:54.124Z,2.73
2023-04-02T04:33:24.534Z,2.70
2023-04-02T04:35:56.108Z,2.50
2023-04-02T04:38:32.642Z,2.90
2023-04-02T04:41:04.229Z,2.60
2023-04-02T04:43:38.542Z,2.70
2023-04-02T04:46:09.425Z,3.40
2023-04-02T04:48:38.144Z,2.77
2023-04-02T04:51:10.231Z,2.60
2023-04-02T04:53:47.366Z,2.90
2023-04-02T04:56:19.803Z,2.53
2023-04-02T04:58:50.046Z,3.07
2023-04-02T05:01:20.791Z,2.77
2023-04-02T05:03:53.073Z,3.37
2023-04-02T05:06:27.011Z,2.93
2023-04-02T05:08:56.772Z,3.53
2023-04-02T05:11:27.656Z,3.53
2023-04-02T05:13:57.979Z,2.50
2023-04-02T05:16:27.637Z,3.53
2023-04-02T05:18:59.206Z,3.93
2023-04-02T05:21:34.270Z,3.13
2023-04-02T05:24:14.797Z,3.17
2023-04-02T05:26:44.980Z,3.50
2023-04-02T05:29:17.075Z,3.57
2023-04-02T05:31:48.677Z,2.93
2023-04-02T05:34:23.479Z,3.70
2023-04-02T05:36:52.389Z,3.60
2023-04-02T05:39:23.082Z,3.40
2023-04-02T05:41:58.828Z,3.90
2023-04-02T05:44:28.143Z,3.50
2023-04-02T05:46:58.364Z,3.33
2023-04-02T05:49:28.604Z,5.10
2023-04-02T05:51:59.826Z,3.30
2023-04-02T05:54:30.226Z,4.00
2023-04-02T05:57:01.880Z,3.33
2023-04-02T05:59:31.265Z,3.50
2023-04-02T06:02:03.426Z,3.97
2023-04-02T06:04:34.243Z,4.27
2023-04-02T06:07:07.049Z,3.97
2023-04-02T06:09:41.489Z,4.33
2023-04-02T06:12:18.597Z,4.83
2023-04-02T06:14:46.636Z,4.70
2023-04-02T06:17:16.172Z,5.30
2023-04-02T06:19:43.936Z,5.43
2023-04-02T06:22:20.185Z,4.70
2023-04-02T06:24:51.358Z,4.73
2023-04-02T06:27:22.589Z,4.57
2023-04-02T06:29:52.826Z,4.80
2023-04-02T06:32:22.144Z,5.40
2023-04-02T06:34:49.773Z,4.97
2023-04-02T06:37:23.331Z,1.33
2023-04-02T06:39:50.785Z,1.10
2023-04-02T06:42:20.789Z,0.80
2023-04-02T06:44:48.396Z,0.70
2023-04-02T06:47:23.722Z,0.80
2023-04-02T06:49:53.659Z,1.50
2023-04-02T06:52:27.017Z,0.80
2023-04-02T06:54:54.525Z,0.60
2023-04-02T06:57:22.030Z,0.70
2023-04-02T06:59:49.676Z,1.10
2023-04-02T07:02:29.323Z,0.80
2023-04-02T07:05:02.841Z,0.90
2023-04-02T07:07:32.132Z,1.03
2023-04-02T07:09:59.604Z,1.20
2023-04-02T07:12:27.641Z,1.20
2023-04-02T07:14:55.408Z,1.47
2023-04-02T07:17:22.923Z,0.87
2023-04-02T07:19:50.624Z,2.30
2023-04-02T07:22:18.463Z,2.70
2023-04-02T07:24:47.480Z,4.57
2023-04-02T07:27:15.972Z,5.80
2023-04-02T07:29:43.536Z,2.20
2023-04-02T07:32:11.661Z,1.00
2023-04-02T07:34:39.206Z,0.70
2023-04-02T07:37:06.863Z,1.30
2023-04-02T07:39:36.540Z,1.47
2023-04-02T07:42:07.888Z,1.33
2023-04-02T07:44:35.730Z,1.73
2023-04-02T07:47:03.360Z,4.80
2023-04-02T07:49:30.922Z,1.00
2023-04-02T07:51:58.420Z,4.80
2023-04-02T07:54:27.069Z,1.40
2023-04-02T07:56:54.699Z,1.97
2023-04-02T07:59:23.605Z,1.10
2023-04-02T08:01:53.008Z,1.00
2023-04-02T08:04:22.057Z,1.53
2023-04-02T08:06:50.464Z,6.10
2023-04-02T08:09:19.134Z,9.73
2023-04-02T08:11:46.790Z,1.30
2023-04-02T08:14:14.949Z,1.00
2023-04-02T08:16:48.686Z,1.40
2023-04-02T08:19:16.557Z,2.20
2023-04-02T08:21:44.116Z,2.27
2023-04-02T08:24:11.643Z,2.10
2023-04-02T08:26:39.266Z,1.97
2023-04-02T08:29:06.717Z,2.60
2023-04-02T08:31:34.312Z,1.47
2023-04-02T08:34:03.281Z,2.73
2023-04-02T08:36:32.153Z,2.27
2023-04-02T08:38:59.717Z,0.70
2023-04-02T08:41:28.504Z,1.20
2023-04-02T08:44:10.017Z,1.43
2023-04-02T08:46:42.299Z,1.00
2023-04-02T08:49:14.010Z,2.60
2023-04-02T08:51:41.628Z,4.33
2023-04-02T08:54:17.352Z,2.50
2023-04-02T08:56:50.174Z,0.80
2023-04-02T08:59:24.447Z,1.33
2023-04-02T09:01:57.452Z,2.40
2023-04-02T09:04:26.583Z,1.60
2023-04-02T09:06:56.618Z,1.40
2023-04-02T09:09:24.765Z,1.80
2023-04-02T09:11:55.310Z,2.17
2023-04-02T09:14:26.325Z,2.57
2023-04-02T09:16:55.304Z,1.10
2023-04-02T09:19:24.650Z,3.63
2023-04-02T09:22:08.957Z,3.20
2023-04-02T09:24:37.501Z,1.80
2023-04-02T09:27:05.029Z,2.13
2023-04-02T09:29:46.340Z,1.30
2023-04-02T09:32:28.760Z,1.47
2023-04-02T09:35:24.788Z,2.00
2023-04-02T09:38:17.411Z,1.70
2023-04-02T09:40:47.677Z,1.30
2023-04-02T09:43:17.530Z,1.60
2023-04-02T09:45:46.037Z,1.33
2023-04-02T09:48:22.808Z,1.77
2023-04-02T09:50:50.426Z,1.90
2023-04-02T09:53:29.324Z,1.50
2023-04-02T09:56:10.602Z,1.80
2023-04-02T09:58:38.214Z,1.60
2023-04-02T10:01:08.458Z,2.10
2023-04-02T10:03:36.572Z,1.70
2023-04-02T10:06:11.342Z,1.80
2023-04-02T10:08:42.276Z,1.83
2023-04-02T10:11:11.982Z,1.97
2023-04-02T10:13:44.841Z,2.00
2023-04-02T10:16:14.438Z,1.60
2023-04-02T10:18:46.531Z,1.70
2023-04-02T10:21:17.074Z,1.53
2023-04-02T10:23:46.347Z,1.83
2023-04-02T10:26:23.713Z,0.90
2023-04-02T10:29:06.763Z,1.27
2023-04-02T10:31:41.026Z,1.30
2023-04-02T10:34:14.013Z,1.23
2023-04-02T10:36:50.513Z,1.00
2023-04-02T10:39:21.258Z,1.20
2023-04-02T10:41:53.269Z,1.20
2023-04-02T10:44:31.120Z,1.47
2023-04-02T10:47:15.874Z,1.17
2023-04-02T10:49:44.715Z,1.50
2023-04-02T10:52:17.538Z,1.20
2023-04-02T10:54:50.572Z,2.87
2023-04-02T10:57:25.941Z,2.00
2023-04-02T10:59:57.408Z,1.17
2023-04-02T11:02:35.933Z,1.30
2023-04-02T11:05:11.827Z,0.90
2023-04-02T11:07:50.855Z,2.10
2023-04-02T11:10:20.755Z,1.33
2023-04-02T11:12:53.255Z,2.00
2023-04-02T11:15:20.928Z,1.50
2023-04-02T11:17:49.013Z,0.93
2023-04-02T11:20:57.195Z,1.23
2023-04-02T11:23:28.333Z,3.30
2023-04-02T11:26:31.028Z,4.87
2023-04-02T11:29:26.014Z,2.00
2023-04-02T11:32:21.689Z,1.80
2023-04-02T11:35:20.728Z,1.93
2023-04-02T11:37:48.265Z,2.10
2023-04-02T11:40:42.043Z,1.93
2023-04-02T11:43:47.007Z,1.70
2023-04-02T11:46:49.010Z,1.57
2023-04-02T11:49:41.975Z,1.90
2023-04-02T11:52:22.669Z,1.47
2023-04-02T11:54:57.755Z,1.47
2023-04-02T11:57:35.640Z,1.60
2023-04-02T12:00:18.170Z,3.00
2023-04-02T12:02:59.547Z,2.10
2023-04-02T12:05:28.481Z,1.80
2023-04-02T12:08:07.414Z,3.37
2023-04-02T12:10:51.422Z,1.60
2023-04-02T12:13:20.669Z,2.20
2023-04-02T12:15:48.767Z,4.00
2023-04-02T12:18:20.698Z,2.07
2023-04-02T12:20:50.866Z,1.97
2023-04-02T12:23:24.033Z,1.60
2023-04-02T12:25:58.282Z,2.27
2023-04-02T12:28:28.893Z,2.80
2023-04-02T12:31:04.457Z,2.00
2023-04-02T12:33:37.277Z,2.03
2023-04-02T12:36:09.809Z,2.10
2023-04-02T12:38:45.223Z,1.90
2023-04-02T12:41:24.037Z,2.73
2023-04-02T12:43:58.475Z,6.90
2023-04-02T12:46:26.826Z,2.53
2023-04-02T12:48:56.777Z,2.67
2023-04-02T12:51:25.324Z,2.40
2023-04-02T12:53:54.324Z,2.43
2023-04-02T12:56:23.070Z,2.03
2023-04-02T12:58:54.831Z,2.30
2023-04-02T13:01:24.609Z,2.37
2023-04-02T13:04:04.637Z,2.30
2023-04-02T13:06:32.794Z,6.10
2023-04-02T13:09:01.262Z,3.30
2023-04-02T13:11:36.633Z,2.60
2023-04-02T13:14:05.848Z,2.30
2023-04-02T13:16:37.469Z,1.80
2023-04-02T13:19:22.722Z,2.53
2023-04-02T13:21:50.359Z,2.10
2023-04-02T13:24:19.852Z,1.67
2023-04-02T13:26:49.415Z,2.40
2023-04-02T13:29:26.314Z,2.30
2023-04-02T13:31:55.663Z,2.03
2023-04-02T13:34:24.820Z,1.73
2023-04-02T13:36:52.474Z,2.40
2023-04-02T13:39:20.459Z,2.60
2023-04-02T13:41:50.022Z,1.77
2023-04-02T13:44:22.828Z,1.80
2023-04-02T13:46:50.905Z,2.60
2023-04-02T13:49:18.876Z,2.70
2023-04-02T13:51:49.634Z,3.00
2023-04-02T13:54:22.307Z,2.70
2023-04-02T13:56:49.879Z,3.20
2023-04-02T13:59:17.456Z,2.67
2023-04-02T14:01:46.353Z,3.20
2023-04-02T14:04:16.318Z,3.10
2023-04-02T14:07:07.515Z,3.20
2023-04-02T14:09:40.343Z,3.27
2023-04-02T14:12:12.377Z,3.50
2023-04-02T14:14:56.175Z,3.30
2023-04-02T14:17:30.774Z,3.00
2023-04-02T14:20:13.478Z,4.03
2023-04-02T14:22:50.605Z,3.43
2023-04-02T14:25:25.834Z,4.00
2023-04-02T14:27:58.768Z,3.50
2023-04-02T14:30:28.657Z,3.50
2023-04-02T14:32:59.103Z,3.90
2023-04-02T14:35:30.564Z,3.70
2023-04-02T14:38:06.058Z,3.30
2023-04-02T14:40:37.519Z,3.20
2023-04-02T14:43:08.330Z,3.40
2023-04-02T14:45:48.292Z,4.97
2023-04-02T14:48:25.699Z,4.27
2023-04-02T14:50:56.456Z,4.57
2023-04-02T14:53:28.559Z,3.57
2023-04-02T14:55:57.204Z,3.33
2023-04-02T14:58:27.785Z,3.23
2023-04-02T15:00:59.034Z,3.57
2023-04-02T15:03:30.813Z,3.17
2023-04-02T15:06:00.193Z,3.43
2023-04-02T15:08:30.972Z,3.80
2023-04-02T15:11:05.698Z,2.50
2023-04-02T15:13:37.991Z,2.60
2023-04-02T15:16:11.568Z,2.83
2023-04-02T15:18:39.323Z,3.20
2023-04-02T15:21:16.495Z,3.40
2023-04-02T15:23:54.826Z,3.20
2023-04-02T15:26:27.099Z,2.30
2023-04-02T15:29:01.002Z,4.00
2023-04-02T15:31:29.280Z,2.70
2023-04-02T15:34:09.083Z,2.90
2023-04-02T15:37:09.179Z,2.40
2023-04-02T15:39:59.511Z,2.40
2023-04-02T15:42:29.255Z,2.57
2023-04-02T15:45:25.581Z,2.53
2023-04-02T15:48:14.879Z,2.07
2023-04-02T15:50:48.162Z,2.80
2023-04-02T15:53:27.817Z,3.17
2023-04-02T15:56:03.177Z,2.60
2023-04-02T15:58:44.298Z,3.27
2023-04-02T16:01:16.314Z,3.07
2023-04-02T16:04:07.789Z,2.50
2023-04-02T16:06:43.322Z,2.33
2023-04-02T16:09:19.454Z,2.87
2023-04-02T16:11:48.779Z,2.57
2023-04-02T16:14:25.629Z,2.90
2023-04-02T16:16:54.713Z,3.37
2023-04-02T16:19:27.348Z,3.10
2023-04-02T16:22:02.432Z,2.50
2023-04-02T16:24:29.911Z,4.90
2023-04-02T16:27:04.669Z,3.73
2023-04-02T16:29:53.380Z,3.10
2023-04-02T16:32:35.899Z,3.13
2023-04-02T16:35:33.432Z,3.43
2023-04-02T16:38:07.738Z,3.00
2023-04-02T16:40:45.165Z,3.10
2023-04-02T16:43:26.019Z,3.50
2023-04-02T16:45:57.740Z,3.90
2023-04-02T16:48:30.789Z,3.40
2023-04-02T16:51:06.928Z,3.50
2023-04-02T16:53:50.952Z,4.13
2023-04-02T16:56:41.515Z,5.27
2023-04-02T16:59:16.698Z,4.20
2023-04-02T17:01:48.992Z,3.20
2023-04-02T17:04:29.087Z,3.50
2023-04-02T17:07:01.899Z,5.00
2023-04-02T17:09:35.424Z,2.50
2023-04-02T17:12:06.122Z,3.60
2023-04-02T17:14:39.308Z,3.47
2023-04-02T17:17:06.835Z,3.40
2023-04-02T17:19:34.350Z,2.97
2023-04-02T17:22:03.414Z,3.50
2023-04-02T17:24:34.748Z,3.50
2023-04-02T17:27:08.224Z,3.30
2023-04-02T17:29:39.243Z,3.40
2023-04-02T17:32:14.895Z,3.20
2023-04-02T17:34:42.309Z,2.70
2023-04-02T17:37:19.153Z,3.53
2023-04-02T17:39:53.726Z,2.80
2023-04-02T17:42:26.469Z,3.80
2023-04-02T17:45:02.896Z,3.40
2023-04-02T17:47:36.790Z,3.37
2023-04-02T17:50:40.266Z,3.00
2023-04-02T17:53:18.870Z,4.73
2023-04-02T17:55:53.839Z,3.17
2023-04-02T17:58:36.650Z,3.10
2023-04-02T18:01:08.144Z,3.37
2023-04-02T18:03:49.117Z,2.93
2023-04-02T18:06:20.863Z,2.70
2023-04-02T18:08:58.469Z,3.60
2023-04-02T18:11:32.555Z,3.40
2023-04-02T18:14:01.225Z,3.60
2023-04-02T18:16:49.514Z,2.87
2023-04-02T18:19:19.002Z,2.63
2023-04-02T18:21:52.214Z,3.00
2023-04-02T18:24:43.257Z,3.13
2023-04-02T18:27:22.497Z,2.93
2023-04-02T18:29:56.301Z,2.60
2023-04-02T18:32:56.781Z,3.33
2023-04-02T18:35:26.578Z,2.00
2023-04-02T18:38:07.778Z,3.23
2023-04-02T18:40:41.839Z,3.10
2023-04-02T18:43:19.984Z,2.67
2023-04-02T18:45:56.985Z,2.17
2023-04-02T18:48:35.366Z,1.93
2023-04-02T18:51:04.319Z,2.50
2023-04-02T18:53:33.730Z,3.40
2023-04-02T18:56:04.713Z,2.20
2023-04-02T18:58:37.322Z,2.17
2023-04-02T19:01:05.651Z,2.30
2023-04-02T19:03:39.215Z,2.47
2023-04-02T19:06:10.397Z,2.70
2023-04-02T19:08:42.912Z,2.90
2023-04-02T19:11:13.815Z,2.67
2023-04-02T19:13:41.510Z,2.47
2023-04-02T19:16:22.653Z,2.10
2023-04-02T19:18:57.384Z,2.00
2023-04-02T19:21:34.979Z,2.50
2023-04-02T19:24:12.235Z,2.20
2023-04-02T19:26:45.310Z,2.60
2023-04-02T19:29:21.262Z,2.40
2023-04-02T19:31:51.067Z,1.80
2023-04-02T19:34:24.399Z,2.10
2023-04-02T19:36:55.568Z,2.13
2023-04-02T19:39:39.514Z,1.97
2023-04-02T19:42:11.983Z,2.10
2023-04-02T19:44:44.030Z,1.80
2023-04-02T19:47:13.481Z,2.53
2023-04-02T19:49:42.305Z,1.50
2023-04-02T19:52:09.784Z,1.73
2023-04-02T19:54:38.450Z,1.97
2023-04-02T19:57:06.375Z,2.23
2023-04-02T19:59:34.089Z,2.10
2023-04-02T20:02:05.704Z,2.20
2023-04-02T20:04:33.324Z,2.37
2023-04-02T20:07:02.153Z,1.90
2023-04-02T20:09:30.130Z,1.70
2023-04-02T20:11:57.602Z,2.13
2023-04-02T20:14:25.122Z,2.23
2023-04-02T20:16:52.796Z,1.93
2023-04-02T20:19:20.592Z,1.93
2023-04-02T20:21:48.093Z,1.40
2023-04-02T20:24:16.936Z,1.53
2023-04-02T20:26:44.396Z,1.53
2023-04-02T20:29:11.892Z,2.00
2023-04-02T20:31:39.421Z,2.10
2023-04-02T20:34:08.518Z,2.30
2023-04-02T20:36:36.365Z,1.43
2023-04-02T20:39:07.105Z,1.53
2023-04-02T20:41:35.930Z,1.93
2023-04-02T20:44:03.397Z,2.10
2023-04-02T20:46:31.078Z,2.97
2023-04-02T20:48:58.585Z,2.07
2023-04-02T20:51:26.406Z,1.77
2023-04-02T20:53:53.992Z,1.83
2023-04-02T20:56:23.229Z,1.93
2023-04-02T20:58:52.060Z,1.70
2023-04-02T21:01:21.165Z,1.90
2023-04-02T21:03:49.190Z,1.70
2023-04-02T21:06:18.978Z,2.40
2023-04-02T21:08:46.784Z,2.00
2023-04-02T21:11:14.384Z,1.90
2023-04-02T21:13:44.026Z,2.10
2023-04-02T21:16:17.062Z,1.90
2023-04-02T21:18:44.995Z,1.83
2023-04-02T21:21:14.238Z,1.60
2023-04-02T21:23:42.577Z,1.90
2023-04-02T21:26:12.567Z,1.77
2023-04-02T21:28:40.332Z,1.70
2023-04-02T21:31:10.678Z,1.37
2023-04-02T21:33:41.267Z,1.77
2023-04-02T21:36:10.279Z,2.40
2023-04-02T21:38:38.446Z,1.70
2023-04-02T21:41:14.595Z,2.60
2023-04-02T21:43:42.254Z,1.60
2023-04-02T21:46:10.311Z,1.50
2023-04-02T21:48:40.516Z,1.50
2023-04-02T21:51:09.544Z,1.97
2023-04-02T21:53:37.406Z,2.00
2023-04-02T21:56:06.337Z,2.00
2023-04-02T21:58:33.998Z,2.10
2023-04-02T22:01:01.871Z,1.70
2023-04-02T22:03:31.936Z,1.67
2023-04-02T22:06:06.698Z,1.40
2023-04-02T22:08:34.661Z,1.70
2023-04-02T22:11:07.361Z,1.60
2023-04-02T22:13:34.878Z,1.70
2023-04-02T22:16:05.681Z,1.50
2023-04-02T22:18:34.997Z,1.90
2023-04-02T22:21:03.909Z,1.57
2023-04-02T22:23:31.430Z,1.33
2023-04-02T22:25:59.849Z,1.27
2023-04-02T22:28:28.176Z,1.27
2023-04-02T22:30:56.219Z,1.73
2023-04-02T22:33:23.782Z,1.80
2023-04-02T22:35:52.354Z,1.70
2023-04-02T22:38:21.240Z,1.60
2023-04-02T22:40:48.697Z,2.70
2023-04-02T22:43:16.228Z,1.43
2023-04-02T22:45:45.483Z,1.50
2023-04-02T22:48:12.927Z,1.40
2023-04-02T22:50:40.550Z,1.63
2023-04-02T22:53:08.047Z,1.80
2023-04-02T22:55:36.870Z,1.60
2023-04-02T22:58:04.291Z,1.70
2023-04-02T23:00:31.852Z,1.53
2023-04-02T23:02:59.399Z,1.10
2023-04-02T23:05:27.136Z,1.43
2023-04-02T23:07:54.724Z,1.50
2023-04-02T23:10:22.250Z,1.33
2023-04-02T23:12:51.133Z,1.30
2023-04-02T23:15:18.706Z,1.57
2023-04-02T23:17:46.212Z,1.67
2023-04-02T23:20:14.042Z,1.87
2023-04-02T23:22:41.550Z,1.33
2023-04-02T23:25:09.322Z,1.30
2023-04-02T23:27:36.968Z,1.40
2023-04-02T23:30:08.664Z,1.30
2023-04-02T23:32:36.168Z,1.13
2023-04-02T23:35:03.650Z,1.30
2023-04-02T23:37:31.270Z,1.27
2023-04-02T23:39:58.739Z,1.53
2023-04-02T23:42:27.237Z,1.60
2023-04-02T23:44:55.485Z,2.53
2023-04-02T23:47:24.271Z,1.00
2023-04-02T23:49:51.730Z,1.20
2023-04-02T23:52:19.350Z,1.30
2023-04-02T23:54:46.766Z,1.60
2023-04-02T23:57:14.971Z,1.87
2023-04-02T23:59:42.574Z,1.20
